Time,TemperatureF,DewpointF,PressureIn,WindDirection,WindDirectionDegrees,WindSpeedMPH,WindSpeedGustMPH,Humidity,HourlyPrecipIn,Conditions,Clouds,dailyrainin,SoftwareType,DateUTC
2013-06-24 00:02:00,70.0,69.0,30.19,WNW,289,0.0,0.0,97,0.00,,,0.20,,2013-06-24 04:02:00,
2013-06-24 00:12:00,70.0,69.0,30.19,WNW,289,0.0,0.0,98,0.00,,,0.20,,2013-06-24 04:12:00,
2013-06-24 00:22:00,70.0,69.0,30.19,WNW,289,0.0,0.0,98,0.00,,,0.20,,2013-06-24 04:22:00,
2013-06-24 00:33:00,70.0,69.0,30.19,WNW,289,0.0,0.0,98,0.00,,,0.20,,2013-06-24 04:33:00,
2013-06-24 00:43:00,70.0,69.0,30.19,WNW,289,0.0,0.0,98,0.00,,,0.20,,2013-06-24 04:43:00,
2013-06-24 00:52:00,70.0,69.0,30.19,WNW,289,0.0,0.0,98,0.00,,,0.20,,2013-06-24 04:52:00,
2013-06-24 01:02:00,70.0,69.0,30.19,WNW,289,0.0,0.0,98,0.00,,,0.20,,2013-06-24 05:02:00,
2013-06-24 01:12:00,69.0,68.0,30.19,WNW,289,0.0,0.0,98,0.00,,,0.20,,2013-06-24 05:12:00,
2013-06-24 01:22:00,70.0,69.0,30.19,WNW,289,0.0,0.0,98,0.00,,,0.20,,2013-06-24 05:22:00,
2013-06-24 01:36:00,70.0,69.0,30.19,WNW,289,0.0,0.0,98,0.00,,,0.20,,2013-06-24 05:36:00,
2013-06-24 01:46:00,70.0,69.0,30.19,WNW,289,0.0,0.0,98,0.00,,,0.20,,2013-06-24 05:46:00,
2013-06-24 01:53:00,70.0,69.0,30.19,WNW,289,0.0,0.0,98,0.00,,,0.20,,2013-06-24 05:53:00,
2013-06-24 02:08:00,70.0,69.0,30.18,WNW,289,0.0,0.0,98,0.00,,,0.20,,2013-06-24 06:08:00,
2013-06-24 02:14:00,70.0,69.0,30.18,WNW,289,0.0,0.0,98,0.00,,,0.20,,2013-06-24 06:14:00,
2013-06-24 02:23:00,70.0,69.0,30.18,WNW,289,0.0,0.0,98,0.00,,,0.20,,2013-06-24 06:23:00,
2013-06-24 02:37:00,70.0,69.0,30.17,WNW,289,0.0,0.0,98,0.00,,,0.20,,2013-06-24 06:37:00,
2013-06-24 02:45:00,70.0,69.0,30.17,WNW,289,0.0,0.0,98,0.00,,,0.20,,2013-06-24 06:45:00,
2013-06-24 02:52:00,70.0,69.0,30.18,WNW,289,0.0,0.0,98,0.00,,,0.20,,2013-06-24 06:52:00,
2013-06-24 03:05:00,70.0,69.0,30.18,WNW,289,0.0,0.0,98,0.00,,,0.20,,2013-06-24 07:05:00,
2013-06-24 03:14:00,70.0,69.0,30.18,WNW,289,0.0,0.0,98,0.00,,,0.20,,2013-06-24 07:14:00,
2013-06-24 03:29:00,70.0,69.0,30.17,WNW,289,0.0,0.0,98,0.00,,,0.20,,2013-06-24 07:29:00,
2013-06-24 03:47:00,69.0,68.0,30.16,WNW,289,0.0,0.0,98,0.00,,,0.20,,2013-06-24 07:47:00,
2013-06-24 03:54:00,69.0,68.0,30.16,WNW,289,0.0,0.0,98,0.00,,,0.20,,2013-06-24 07:54:00,
2013-06-24 04:04:00,69.0,68.0,30.17,WNW,289,0.0,0.0,98,0.00,,,0.20,,2013-06-24 08:04:00,
2013-06-24 04:14:00,70.0,69.0,30.17,WNW,289,0.0,0.0,98,0.00,,,0.20,,2013-06-24 08:14:00,
2013-06-24 04:26:00,69.0,68.0,30.17,WNW,289,0.0,0.0,98,0.00,,,0.20,,2013-06-24 08:26:00,
2013-06-24 04:35:00,69.0,68.0,30.17,WNW,289,0.0,0.0,98,0.00,,,0.20,,2013-06-24 08:35:00,
2013-06-24 04:46:00,69.0,68.0,30.17,WNW,289,0.0,0.0,98,0.00,,,0.20,,2013-06-24 08:46:00,
2013-06-24 04:52:00,69.0,68.0,30.18,WNW,289,0.0,0.0,98,0.00,,,0.20,,2013-06-24 08:52:00,
2013-06-24 05:15:00,69.0,68.0,30.18,WNW,289,0.0,0.0,98,0.00,,,0.20,,2013-06-24 09:15:00,
2013-06-24 05:25:00,69.0,68.0,30.18,WNW,289,0.0,0.0,98,0.00,,,0.20,,2013-06-24 09:25:00,
2013-06-24 05:37:00,69.0,68.0,30.18,WNW,289,0.0,0.0,98,0.00,,,0.20,,2013-06-24 09:37:00,
2013-06-24 05:47:00,69.0,68.0,30.18,WNW,289,0.0,0.0,98,0.00,,,0.20,,2013-06-24 09:47:00,
2013-06-24 05:55:00,68.0,67.0,30.19,WNW,289,0.0,0.0,98,0.00,,,0.20,,2013-06-24 09:55:00,
2013-06-24 06:05:00,69.0,68.0,30.19,WNW,289,0.0,0.0,98,0.00,,,0.20,,2013-06-24 10:05:00,
2013-06-24 06:14:00,69.0,68.0,30.19,WNW,289,0.0,0.0,98,0.00,,,0.20,,2013-06-24 10:14:00,
2013-06-24 06:24:00,69.0,68.0,30.19,WNW,289,0.0,0.0,98,0.00,,,0.20,,2013-06-24 10:24:00,
2013-06-24 06:37:00,69.0,68.0,30.19,WNW,289,0.0,0.0,98,0.00,,,0.20,,2013-06-24 10:37:00,
2013-06-24 06:49:00,69.0,68.0,30.19,WNW,289,0.0,0.0,98,0.00,,,0.20,,2013-06-24 10:49:00,
2013-06-24 06:54:00,70.0,69.0,30.20,WNW,289,0.0,0.0,98,0.00,,,0.20,,2013-06-24 10:54:00,
2013-06-24 07:03:00,70.0,69.0,30.20,WNW,289,0.0,0.0,98,0.00,,,0.20,,2013-06-24 11:03:00,
2013-06-24 07:15:00,70.0,69.0,30.20,WNW,289,0.0,0.0,98,0.00,,,0.20,,2013-06-24 11:15:00,
2013-06-24 07:29:00,69.0,68.0,30.20,WNW,289,0.0,0.0,98,0.00,,,0.20,,2013-06-24 11:29:00,
2013-06-24 07:34:00,70.0,69.0,30.21,WNW,289,0.0,0.0,98,0.00,,,0.20,,2013-06-24 11:34:00,
2013-06-24 07:46:00,70.0,69.0,30.21,WNW,289,0.0,0.0,98,0.00,,,0.20,,2013-06-24 11:46:00,
2013-06-24 07:56:00,70.0,69.0,30.21,WNW,289,0.0,0.0,98,0.00,,,0.20,,2013-06-24 11:56:00,
2013-06-24 08:16:00,71.0,70.0,30.22,NNW,332,0.0,1.0,98,0.00,,,0.20,,2013-06-24 12:16:00,
2013-06-24 08:23:00,72.0,71.0,30.22,NNW,332,0.0,0.0,98,0.00,,,0.20,,2013-06-24 12:23:00,
2013-06-24 08:36:00,72.0,71.0,30.23,NNW,332,0.0,1.0,98,0.00,,,0.20,,2013-06-24 12:36:00,
2013-06-24 08:48:00,72.0,71.0,30.23,SSW,204,0.0,0.0,98,0.00,,,0.20,,2013-06-24 12:48:00,
2013-06-24 08:53:00,72.0,71.0,30.23,SSW,204,0.0,0.0,98,0.00,,,0.20,,2013-06-24 12:53:00,
2013-06-24 09:06:00,72.0,71.0,30.23,SSW,204,0.0,0.0,98,0.00,,,0.20,,2013-06-24 13:06:00,
2013-06-24 09:43:00,73.0,72.0,30.24,NNW,328,0.0,1.0,96,0.00,,,0.20,,2013-06-24 13:43:00,
2013-06-24 10:37:00,75.0,72.0,30.25,NNW,344,0.0,1.0,89,0.00,,,0.20,,2013-06-24 14:37:00,
2013-06-24 10:45:00,76.0,71.0,30.25,WNW,302,1.0,3.0,85,0.00,,,0.20,,2013-06-24 14:45:00,
2013-06-24 11:54:00,79.0,73.0,30.25,West,279,0.0,1.0,81,0.00,,,0.20,,2013-06-24 15:54:00,
2013-06-24 13:35:00,82.0,70.0,30.22,WNW,293,0.0,2.0,68,0.00,,,0.20,,2013-06-24 17:35:00,
2013-06-24 14:46:00,85.0,72.0,30.18,WNW,302,1.0,3.0,65,0.00,,,0.20,,2013-06-24 18:46:00,
2013-06-24 15:06:00,85.0,71.0,30.18,NW,307,0.0,1.0,64,0.00,,,0.20,,2013-06-24 19:06:00,
2013-06-24 16:45:00,86.0,72.0,30.15,WNW,286,0.0,2.0,64,0.00,,,0.20,,2013-06-24 20:45:00,
2013-06-24 17:46:00,86.0,71.0,30.13,SSW,204,0.0,1.0,62,0.00,,,0.20,,2013-06-24 21:46:00,
2013-06-24 17:53:00,86.0,73.0,30.13,SSW,204,0.0,1.0,65,0.00,,,0.20,,2013-06-24 21:53:00,
2013-06-24 18:05:00,85.0,70.0,30.13,SSW,204,0.0,1.0,60,0.00,,,0.20,,2013-06-24 22:05:00,
2013-06-24 18:36:00,85.0,73.0,30.12,East,100,0.0,1.0,67,0.00,,,0.20,,2013-06-24 22:36:00,
2013-06-24 18:47:00,82.0,72.0,30.12,East,100,0.0,1.0,71,0.00,,,0.20,,2013-06-24 22:47:00,
2013-06-24 19:05:00,82.0,72.0,30.11,East,100,0.0,1.0,72,0.00,,,0.20,,2013-06-24 23:05:00,
2013-06-24 19:14:00,82.0,72.0,30.11,East,100,0.0,1.0,72,0.00,,,0.20,,2013-06-24 23:14:00,
2013-06-24 19:27:00,81.0,72.0,30.12,East,100,0.0,1.0,73,0.00,,,0.20,,2013-06-24 23:27:00,
2013-06-24 19:34:00,82.0,72.0,30.12,NE,54,0.0,1.0,71,0.00,,,0.20,,2013-06-24 23:34:00,
2013-06-24 19:45:00,82.0,72.0,30.12,NW,307,0.0,1.0,72,0.00,,,0.20,,2013-06-24 23:45:00,
2013-06-24 19:53:00,82.0,72.0,30.13,WNW,283,0.0,0.0,73,0.00,,,0.20,,2013-06-24 23:53:00,
2013-06-24 20:05:00,81.0,72.0,30.13,WNW,284,0.0,1.0,75,0.00,,,0.20,,2013-06-25 00:05:00,
2013-06-24 20:12:00,81.0,73.0,30.13,WNW,284,0.0,0.0,76,0.00,,,0.20,,2013-06-25 00:12:00,
2013-06-24 20:24:00,81.0,73.0,30.14,WNW,284,0.0,1.0,76,0.00,,,0.00,,2013-06-25 00:24:00,
2013-06-24 20:34:00,80.0,71.0,30.14,NNW,327,0.0,3.0,75,0.00,,,0.00,,2013-06-25 00:34:00,
2013-06-24 20:46:00,80.0,72.0,30.14,NNW,329,0.0,2.0,76,0.00,,,0.00,,2013-06-25 00:46:00,
2013-06-24 20:54:00,79.0,71.0,30.14,SE,130,0.0,2.0,77,0.00,,,0.00,,2013-06-25 00:54:00,
2013-06-24 21:04:00,79.0,72.0,30.14,ESE,113,0.0,1.0,78,0.00,,,0.00,,2013-06-25 01:04:00,
2013-06-24 21:16:00,79.0,72.0,30.14,ESE,113,0.0,1.0,78,0.00,,,0.00,,2013-06-25 01:16:00,